Time;durP1;ratioP1;P1;durP2;ratioP2;P2;SDS_P1;SDS_P2;PMS_P1;PMS_P2;Temp;Humidity;BMP_temperature;BMP_pressure;BME280_temperature;BME280_humidity;BME280_pressure;Samples;Min_cycle;Max_cycle;Signal;HPM_P1;HPM_P2
2023/01/22 00:02:19;;;;;;;;;50.25;40.00;;;;;1.50;62.82;102751.31;5016145;28;46076;-74
2023/01/22 00:04:44;;;;;;;;;55.00;42.50;;;;;1.45;62.49;102725.22;5017576;28;45274;-74
2023/01/22 00:07:11;;;;;;;;;44.67;38.00;;;;;1.14;62.18;102656.09;5016434;28;45559;-73
2023/01/22 00:09:37;;;;;;;;;57.50;44.25;;;;;1.69;62.14;102743.84;5018102;28;45893;-74
2023/01/22 00:12:02;;;;;;;;;46.25;38.00;;;;;1.31;62.45;102680.13;5016283;28;45320;-75
2023/01/22 00:14:28;;;;;;;;;59.00;47.50;;;;;1.36;62.45;102699.19;5017270;28;45469;-75
2023/01/22 00:16:53;;;;;;;;;50.25;36.25;;;;;1.67;62.41;102746.50;5015864;28;45567;-76
2023/01/22 00:19:18;;;;;;;;;56.75;42.00;;;;;1.65;62.35;102742.22;5018640;28;46475;-76
2023/01/22 00:21:44;;;;;;;;;50.50;41.25;;;;;1.09;62.28;102650.09;5017958;28;45572;-76
2023/01/22 00:24:10;;;;;;;;;56.50;42.75;;;;;1.29;62.07;102666.19;5017556;28;45487;-75
2023/01/22 00:26:35;;;;;;;;;54.00;43.75;;;;;1.27;61.75;102664.50;5017283;28;45336;-77
2023/01/22 00:29:02;;;;;;;;;56.50;42.25;;;;;1.79;61.57;102734.84;5017032;28;45677;-73
2023/01/22 00:31:27;;;;;;;;;44.25;35.50;;;;;1.74;61.91;102726.22;5015958;28;46477;-75
2023/01/22 00:33:52;;;;;;;;;44.75;40.00;;;;;1.35;61.41;102649.47;5015865;28;45500;-75
2023/01/22 00:36:20;;;;;;;;;52.50;42.00;;;;;0.89;61.82;102578.09;5017519;28;45434;-75
2023/01/22 00:38:46;;;;;;;;;68.75;53.00;;;;;0.81;61.95;102574.81;5015494;28;48411;-74
2023/01/22 00:41:12;;;;;;;;;44.00;37.75;;;;;1.76;62.25;102746.28;5019776;28;45269;-75
2023/01/22 00:43:39;;;;;;;;;58.25;43.50;;;;;1.73;62.41;102735.00;5021171;28;45490;-75
2023/01/22 00:46:06;;;;;;;;;49.75;41.25;;;;;1.57;62.42;102739.75;5017796;28;45343;-72
2023/01/22 00:48:31;;;;;;;;;57.50;44.00;;;;;1.40;62.58;102705.22;5016635;28;46253;-75
2023/01/22 00:50:57;;;;;;;;;53.75;41.00;;;;;1.40;62.29;102711.38;5015293;28;46265;-75
2023/01/22 00:53:22;;;;;;;;;41.75;36.25;;;;;1.50;62.18;102731.19;5015468;28;45406;-72
2023/01/22 00:55:56;;;;;;;;;54.25;39.00;;;;;1.51;62.44;102730.28;5016854;28;45316;-74
2023/01/22 00:58:22;;;;;;;;;56.50;44.50;;;;;1.57;62.83;102728.41;5015228;28;48038;-75
2023/01/22 01:00:47;;;;;;;;;53.75;42.50;;;;;1.64;62.25;102722.13;5015189;28;45325;-75
2023/01/22 01:03:25;;;;;;;;;59.00;45.50;;;;;1.21;62.09;102658.53;5015602;28;45504;-75
2023/01/22 01:05:51;;;;;;;;;63.00;46.50;;;;;1.04;62.11;102623.16;5017958;28;45420;-75
2023/01/22 01:08:17;;;;;;;;;59.25;49.00;;;;;1.25;61.82;102664.56;5016478;28;46510;-73
2023/01/22 01:10:42;;;;;;;;;56.00;41.25;;;;;1.39;61.96;102678.16;5016737;28;45369;-74
2023/01/22 01:13:07;;;;;;;;;49.00;40.50;;;;;0.81;62.01;102569.59;5015367;28;45702;-76
2023/01/22 01:15:33;;;;;;;;;55.25;40.25;;;;;1.69;61.66;102707.13;5017092;28;45581;-75
2023/01/22 01:17:59;;;;;;;;;52.00;43.50;;;;;0.86;61.11;102557.25;5031130;28;45627;-74
2023/01/22 01:20:24;;;;;;;;;55.50;44.75;;;;;1.39;62.03;102662.44;5039477;28;45547;-74
2023/01/22 01:22:49;;;;;;;;;38.50;33.00;;;;;1.45;61.60;102680.66;5021816;28;45379;-72
2023/01/22 01:25:15;;;;;;;;;55.25;44.25;;;;;1.57;61.96;102712.69;5039983;28;45447;-75
2023/01/22 01:27:40;;;;;;;;;54.75;43.25;;;;;1.55;62.72;102722.34;5022697;28;47762;-75
2023/01/22 01:30:06;;;;;;;;;59.50;46.00;;;;;1.51;61.63;102732.06;5027819;28;46079;-74
2023/01/22 01:32:31;;;;;;;;;58.75;45.75;;;;;1.43;62.38;102708.66;5044664;28;45444;-73
2023/01/22 01:34:57;;;;;;;;;36.75;32.25;;;;;0.73;62.14;102588.97;5061859;28;45485;-75
2023/01/22 01:37:22;;;;;;;;;43.75;37.75;;;;;1.59;62.13;102724.00;5023336;28;57149;-76
2023/01/22 01:39:51;;;;;;;;;56.25;47.50;;;;;0.80;62.01;102585.31;5039855;28;45325;-73
2023/01/22 01:42:23;;;;;;;;;56.50;46.00;;;;;1.26;61.91;102678.53;5024454;28;45335;-74
2023/01/22 01:45:25;;;;;;;;;67.00;47.50;;;;;1.31;62.43;102726.44;5040065;28;45436;-73
2023/01/22 01:48:20;;;;;;;;;60.50;48.50;;;;;0.22;62.39;102577.03;5021313;28;47011;-72
2023/01/22 01:51:09;;;;;;;;;44.67;39.33;;;;;1.25;63.15;102710.84;5039044;28;45332;-74
2023/01/22 01:53:35;;;;;;;;;56.25;42.50;;;;;1.25;62.71;102700.38;5021264;28;45164;-73
2023/01/22 01:56:04;;;;;;;;;44.50;39.50;;;;;0.46;62.55;102538.16;5040518;28;45516;-73
2023/01/22 01:58:32;;;;;;;;;58.75;45.50;;;;;1.24;62.29;102675.06;5039411;28;45723;-73
2023/01/22 02:01:04;;;;;;;;;54.33;45.00;;;;;1.44;62.23;102718.25;5039369;28;45404;-74
2023/01/22 02:03:30;;;;;;;;;45.67;39.33;;;;;1.29;62.02;102691.53;5039286;28;45410;-73
2023/01/22 02:05:55;;;;;;;;;52.00;41.50;;;;;0.49;62.16;102557.25;5039315;28;45508;-77
2023/01/22 02:08:21;;;;;;;;;56.25;41.75;;;;;1.27;62.30;102664.50;5038927;28;45977;-74
2023/01/22 02:10:46;;;;;;;;;54.50;42.75;;;;;1.28;62.54;102664.47;5021113;28;45385;-75
2023/01/22 02:13:19;;;;;;;;;55.50;41.25;;;;;1.55;62.48;102711.88;5020907;28;45741;-74
2023/01/22 02:15:45;;;;;;;;;59.50;48.25;;;;;1.19;61.83;102670.78;5054701;28;45569;-74
2023/01/22 02:18:10;;;;;;;;;58.00;45.50;;;;;1.49;61.82;102732.09;5053852;28;46247;-73
2023/01/22 02:20:37;;;;;;;;;61.50;45.50;;;;;0.58;62.02;102588.44;5038733;28;45489;-74
2023/01/22 02:23:03;;;;;;;;;46.50;41.50;;;;;1.42;62.80;102725.28;5038931;28;45522;-74
2023/01/22 02:25:29;;;;;;;;;59.50;44.00;;;;;1.10;62.04;102678.00;5038830;28;45397;-74
2023/01/22 02:27:54;;;;;;;;;57.00;41.75;;;;;1.14;62.85;102663.94;5038289;28;45803;-74
2023/01/22 02:30:19;;;;;;;;;64.75;49.00;;;;;0.79;62.56;102602.78;5037451;28;45277;-74
2023/01/22 02:32:45;;;;;;;;;56.25;44.25;;;;;1.56;62.90;102731.94;5021045;28;45323;-75
2023/01/22 02:35:10;;;;;;;;;59.00;39.75;;;;;1.43;62.41;102695.56;5039740;28;45487;-75
2023/01/22 02:37:35;;;;;;;;;54.25;41.00;;;;;0.87;62.67;102593.00;5040179;28;45666;-74
2023/01/22 02:40:01;;;;;;;;;59.00;44.25;;;;;1.24;63.08;102689.03;5038383;28;45476;-73
2023/01/22 02:42:26;;;;;;;;;59.25;45.00;;;;;1.35;63.21;102718.44;5020496;28;45341;-74
2023/01/22 02:44:52;;;;;;;;;61.00;44.50;;;;;1.35;63.62;102715.81;5039193;28;45464;-75
2023/01/22 02:47:18;;;;;;;;;44.50;41.75;;;;;1.19;63.34;102680.41;5038299;28;46445;-75
2023/01/22 02:49:43;;;;;;;;;46.50;33.25;;;;;0.86;62.64;102635.78;5038318;28;45282;-74
2023/01/22 02:52:09;;;;;;;;;63.50;45.25;;;;;1.25;62.91;102714.34;5038859;28;45574;-73
2023/01/22 02:54:34;;;;;;;;;65.25;45.75;;;;;1.36;62.46;102735.03;5054545;28;45608;-74
2023/01/22 02:56:59;;;;;;;;;58.25;46.25;;;;;0.99;63.01;102645.97;5053474;28;47583;-75
2023/01/22 02:59:25;;;;;;;;;66.75;50.25;;;;;1.25;62.71;102701.25;5038161;28;45345;-73
2023/01/22 03:01:50;;;;;;;;;60.75;45.50;;;;;1.30;62.53;102730.81;5038287;28;45365;-74
2023/01/22 03:04:16;;;;;;;;;58.75;43.25;;;;;0.68;61.90;102641.44;5038311;28;45331;-74
2023/01/22 03:06:44;;;;;;;;;58.50;46.50;;;;;1.14;63.17;102746.00;5020058;28;48002;-73
2023/01/22 03:09:12;;;;;;;;;59.00;41.50;;;;;1.00;63.36;102702.69;5020254;28;45272;-74
2023/01/22 03:11:40;;;;;;;;;57.00;45.00;;;;;1.13;63.38;102689.28;5020660;28;45297;-75
2023/01/22 03:22:19;;;;;;;;;63.75;51.00;;;;;0.98;62.11;102641.63;5038037;28;45484;-76
2023/01/22 03:24:49;;;;;;;;;62.00;50.00;;;;;1.27;61.82;102711.69;5020242;28;45508;-75
2023/01/22 03:27:16;;;;;;;;;61.25;47.00;;;;;0.33;62.31;102555.00;5020227;28;48036;-74
2023/01/22 03:29:41;;;;;;;;;43.25;35.75;;;;;1.32;62.07;102718.53;5055427;28;45249;-76
2023/01/22 03:32:07;;;;;;;;;57.50;47.00;;;;;0.73;62.44;102612.53;5019982;28;45393;-73
2023/01/22 03:34:33;;;;;;;;;51.75;41.25;;;;;1.33;62.43;102727.25;5037885;28;45322;-73
2023/01/22 03:36:58;;;;;;;;;54.75;46.00;;;;;1.43;62.23;102727.00;5037639;28;46069;-74
2023/01/22 03:39:25;;;;;;;;;66.00;51.25;;;;;1.10;61.93;102659.69;5020120;28;46141;-76
2023/01/22 03:41:50;;;;;;;;;64.75;47.00;;;;;1.12;62.52;102666.59;5019712;28;45717;-73
2023/01/22 03:44:15;;;;;;;;;65.00;51.00;;;;;0.56;61.85;102573.66;5038562;28;45496;-74
2023/01/22 03:46:41;;;;;;;;;56.75;44.25;;;;;1.41;62.08;102717.47;5037459;28;45650;-72
2023/01/22 03:49:07;;;;;;;;;60.50;46.75;;;;;1.47;62.32;102710.31;5037340;28;45423;-73
2023/01/22 03:51:33;;;;;;;;;56.25;44.75;;;;;1.36;61.84;102683.47;5037445;28;45594;-74
2023/01/22 03:53:59;;;;;;;;;62.75;50.50;;;;;1.47;61.50;102706.81;5037145;28;45462;-77
2023/01/22 03:56:25;;;;;;;;;57.00;45.00;;;;;1.48;62.19;102725.13;5037063;28;46419;-75
2023/01/22 03:58:51;;;;;;;;;60.25;47.75;;;;;1.44;62.52;102741.84;5037427;28;45517;-75
2023/01/22 04:01:22;;;;;;;;;65.00;49.25;;;;;1.27;62.08;102703.81;5037262;28;45447;-74
2023/01/22 04:03:49;;;;;;;;;69.00;53.25;;;;;1.38;62.08;102734.09;5037414;28;45307;-75
2023/01/22 04:06:14;;;;;;;;;61.75;47.75;;;;;1.08;62.76;102675.44;5036974;28;45573;-74
2023/01/22 04:08:42;;;;;;;;;57.00;47.25;;;;;1.36;62.54;102712.31;5036892;28;45306;-74
2023/01/22 04:11:09;;;;;;;;;43.25;35.75;;;;;1.30;62.58;102709.84;5037275;28;45464;-74
2023/01/22 04:13:36;;;;;;;;;50.50;42.00;;;;;0.91;62.86;102652.25;5037224;28;45523;-74
2023/01/22 04:16:01;;;;;;;;;54.50;43.00;;;;;0.54;62.28;102585.91;5037542;28;45683;-76
2023/01/22 04:18:27;;;;;;;;;51.50;40.50;;;;;1.37;62.42;102705.31;5019657;28;45412;-75
2023/01/22 04:20:52;;;;;;;;;53.00;42.00;;;;;1.27;61.66;102693.34;5019795;28;45368;-74
2023/01/22 04:23:19;;;;;;;;;45.25;37.50;;;;;0.98;62.19;102659.94;5039032;28;45364;-74
2023/01/22 04:25:45;;;;;;;;;40.50;36.50;;;;;1.12;61.65;102699.78;5021176;28;48084;-73
2023/01/22 04:28:13;;;;;;;;;53.50;41.25;;;;;0.77;62.60;102656.06;5036847;28;45472;-73
2023/01/22 04:30:40;;;;;;;;;47.50;39.00;;;;;1.25;62.45;102703.84;5037176;28;45227;-75
2023/01/22 04:33:06;;;;;;;;;52.75;42.50;;;;;1.21;61.58;102713.56;5036823;28;45530;-76
2023/01/22 04:35:31;;;;;;;;;42.67;38.33;;;;;1.22;61.39;102717.03;5036914;28;45581;-72
2023/01/22 04:37:58;;;;;;;;;48.00;42.00;;;;;0.96;61.11;102661.75;5037104;28;45307;-74
2023/01/22 04:40:23;;;;;;;;;33.00;26.67;;;;;1.04;61.70;102686.03;5018848;28;45407;-72
2023/01/22 04:42:49;;;;;;;;;57.25;42.50;;;;;0.92;61.51;102660.97;5036856;28;45505;-73
2023/01/22 04:45:14;;;;;;;;;56.75;42.00;;;;;0.61;61.74;102634.63;5036619;28;46596;-74
2023/01/22 04:47:41;;;;;;;;;28.50;21.00;;;;;0.06;62.28;102533.81;5018854;28;45247;-73
2023/01/22 04:50:11;;;;;;;;;36.50;30.00;;;;;0.62;62.47;102641.59;5036704;28;45333;-74
2023/01/22 04:52:37;;;;;;;;;43.25;33.50;;;;;0.89;62.75;102661.91;5018811;28;45302;-74
2023/01/22 04:55:02;;;;;;;;;48.75;40.00;;;;;0.23;62.45;102529.06;5038949;28;45377;-74
2023/01/22 04:57:28;;;;;;;;;47.50;38.00;;;;;1.25;62.50;102692.53;5021866;28;45377;-73
2023/01/22 04:59:53;;;;;;;;;37.33;33.33;;;;;1.28;62.40;102676.72;5040151;28;45239;-73
2023/01/22 05:02:18;;;;;;;;;48.00;38.25;;;;;1.16;62.13;102659.53;5056309;28;45325;-75
2023/01/22 05:04:44;;;;;;;;;55.25;41.25;;;;;1.30;61.87;102667.91;5039569;28;59991;-73
2023/01/22 05:07:09;;;;;;;;;43.75;33.25;;;;;0.97;61.31;102616.34;5055246;28;45450;-74
2023/01/22 05:09:34;;;;;;;;;47.75;40.75;;;;;1.29;61.78;102692.41;5040282;28;45298;-74
2023/01/22 05:12:00;;;;;;;;;49.50;34.00;;;;;0.98;62.26;102639.88;5022171;28;45285;-74
2023/01/22 05:14:25;;;;;;;;;44.25;38.50;;;;;1.30;62.29;102680.16;5021884;28;47458;-73
2023/01/22 05:16:50;;;;;;;;;41.33;36.00;;;;;1.09;61.97;102637.00;5041654;28;45361;-72
2023/01/22 05:19:16;;;;;;;;;43.00;37.75;;;;;1.19;62.48;102664.69;5055811;28;45731;-75
2023/01/22 05:21:41;;;;;;;;;38.25;28.50;;;;;1.13;62.25;102622.94;5040314;28;45226;-74
2023/01/22 05:24:08;;;;;;;;;53.33;39.33;;;;;1.42;62.00;102672.88;5040056;28;45978;-78
2023/01/22 05:26:33;;;;;;;;;38.33;32.33;;;;;1.23;62.14;102632.28;5039755;28;45426;-73
2023/01/22 05:28:58;;;;;;;;;50.25;39.25;;;;;1.44;62.43;102660.59;5021677;28;45518;-75
2023/01/22 05:31:24;;;;;;;;;45.33;40.33;;;;;0.85;62.15;102555.53;5039896;28;52697;-74
2023/01/22 05:33:49;;;;;;;;;43.33;33.67;;;;;1.12;61.69;102582.78;5039969;28;46015;-73
2023/01/22 05:36:14;;;;;;;;;36.50;30.75;;;;;0.64;61.06;102487.13;5039644;28;45540;-74
2023/01/22 05:38:40;;;;;;;;;42.25;34.25;;;;;1.34;61.21;102622.38;5039461;28;45297;-74
2023/01/22 05:41:05;;;;;;;;;46.33;41.33;;;;;1.52;60.99;102650.75;5022374;28;45535;-74
2023/01/22 05:43:30;;;;;;;;;52.00;34.67;;;;;1.67;61.01;102667.84;5039382;28;48088;-71
2023/01/22 05:46:02;;;;;;;;;45.67;35.67;;;;;1.06;60.78;102555.88;5039153;28;45400;-73
2023/01/22 05:48:27;;;;;;;;;37.50;33.50;;;;;1.68;60.77;102650.38;5039362;28;45231;-73
2023/01/22 05:50:53;;;;;;;;;44.25;35.50;;;;;1.79;61.59;102671.91;5038941;28;46413;-74
2023/01/22 05:53:18;;;;;;;;;43.75;30.75;;;;;1.87;60.92;102662.09;5039526;28;46311;-73
2023/01/22 05:55:43;;;;;;;;;47.33;39.00;;;;;1.61;60.87;102610.34;5023208;28;45190;-74
2023/01/22 05:58:09;;;;;;;;;38.33;33.00;;;;;1.89;61.10;102662.91;5038875;28;45293;-75
2023/01/22 06:00:34;;;;;;;;;46.00;37.33;;;;;1.94;61.12;102660.16;5038979;28;45261;-75
2023/01/22 06:03:00;;;;;;;;;45.33;37.33;;;;;1.94;60.77;102670.63;5038853;28;45532;-72
2023/01/22 06:05:25;;;;;;;;;42.67;37.00;;;;;1.75;61.22;102623.94;5038639;28;45489;-75
2023/01/22 06:07:51;;;;;;;;;36.67;33.00;;;;;1.53;61.37;102601.81;5039024;28;45272;-72
2023/01/22 06:10:17;;;;;;;;;43.00;38.25;;;;;1.76;60.99;102635.28;5039774;28;45506;-75
2023/01/22 06:12:43;;;;;;;;;41.67;35.67;;;;;1.93;61.53;102675.03;5039257;28;45512;-74
2023/01/22 06:15:09;;;;;;;;;34.67;32.67;;;;;1.11;61.09;102526.03;5054094;28;45753;-74
2023/01/22 06:17:35;;;;;;;;;45.67;34.33;;;;;1.91;61.19;102675.97;5038744;28;45603;-73
2023/01/22 06:20:01;;;;;;;;;44.50;36.00;;;;;1.86;62.08;102681.34;5020884;28;45234;-73
2023/01/22 06:22:26;;;;;;;;;38.67;24.33;;;;;1.89;61.52;102668.16;5038611;28;46213;-72
2023/01/22 06:24:51;;;;;;;;;36.33;34.00;;;;;1.96;61.65;102669.69;5038619;28;45253;-74
2023/01/22 06:27:17;;;;;;;;;40.00;33.00;;;;;2.03;61.11;102666.00;5038710;28;45318;-74
2023/01/22 06:29:42;;;;;;;;;46.33;38.33;;;;;1.13;61.24;102491.94;5038987;28;45554;-73
2023/01/22 06:32:07;;;;;;;;;52.75;40.75;;;;;1.77;61.34;102610.78;5037396;28;46332;-74
2023/01/22 06:34:33;;;;;;;;;48.00;37.00;;;;;1.35;61.37;102542.00;5038303;28;45321;-74
2023/01/22 06:36:58;;;;;;;;;47.00;39.67;;;;;2.07;61.37;102651.91;5020209;28;45388;-74
2023/01/22 06:39:24;;;;;;;;;28.33;27.00;;;;;2.17;61.91;102664.75;5018526;28;45462;-73
2023/01/22 06:41:49;;;;;;;;;32.33;28.33;;;;;2.09;62.03;102670.22;5036310;28;46440;-74
2023/01/22 06:44:15;;;;;;;;;45.00;39.33;;;;;1.82;61.90;102624.63;5019386;28;46175;-73
2023/01/22 06:46:40;;;;;;;;;55.33;38.67;;;;;2.15;62.53;102667.41;5037605;28;45476;-74
2023/01/22 06:49:10;;;;;;;;;38.00;33.33;;;;;1.66;62.34;102597.97;5020330;28;45454;-73
2023/01/22 06:51:36;;;;;;;;;48.25;40.75;;;;;1.50;62.61;102547.72;5038000;28;46372;-74
2023/01/22 06:54:01;;;;;;;;;47.25;32.75;;;;;2.22;62.48;102671.63;5038116;28;45209;-75
2023/01/22 06:56:27;;;;;;;;;52.00;40.00;;;;;1.87;61.68;102617.50;5020170;28;45248;-75
2023/01/22 06:58:52;;;;;;;;;43.00;35.00;;;;;1.93;62.02;102614.69;5039073;28;45611;-72
2023/01/22 07:01:17;;;;;;;;;39.67;37.00;;;;;2.32;61.39;102691.44;5039513;28;46421;-76
2023/01/22 07:03:44;;;;;;;;;45.25;39.75;;;;;2.20;62.43;102672.53;5018766;28;45390;-75
2023/01/22 07:06:10;;;;;;;;;47.00;39.75;;;;;2.26;61.85;102682.88;5019916;28;45448;-76
2023/01/22 07:08:35;;;;;;;;;58.25;40.75;;;;;1.56;62.13;102558.91;5036137;28;45380;-74
2023/01/22 07:11:01;;;;;;;;;57.33;40.00;;;;;2.18;61.92;102679.59;5017895;28;47506;-73
2023/01/22 07:13:26;;;;;;;;;51.00;41.67;;;;;2.23;62.37;102691.72;5037050;28;45468;-76
2023/01/22 07:15:52;;;;;;;;;38.33;35.00;;;;;2.08;62.47;102655.38;5036431;28;45673;-75
2023/01/22 07:18:19;;;;;;;;;45.00;36.67;;;;;2.08;62.15;102664.13;5037423;28;45251;-74
2023/01/22 07:20:46;;;;;;;;;42.33;37.67;;;;;2.19;62.84;102666.44;5037617;28;45887;-75
2023/01/22 07:23:12;;;;;;;;;41.33;38.33;;;;;2.42;61.86;102711.28;5019865;28;45315;-74
2023/01/22 07:25:37;;;;;;;;;43.00;36.00;;;;;2.22;62.28;102686.50;5038106;28;45237;-73
2023/01/22 07:28:04;;;;;;;;;52.75;40.50;;;;;2.20;63.17;102714.53;5038137;28;45452;-74
2023/01/22 07:30:30;;;;;;;;;48.67;41.00;;;;;2.26;63.69;102704.72;5038186;28;45858;-75
2023/01/22 07:33:02;;;;;;;;;46.67;36.67;;;;;2.27;63.28;102719.56;5038069;28;45481;-75
2023/01/22 07:35:28;;;;;;;;;46.00;37.33;;;;;1.74;63.05;102632.69;5037939;28;45238;-73
2023/01/22 07:37:55;;;;;;;;;46.67;36.67;;;;;2.11;63.36;102705.16;5019846;28;45517;-75
2023/01/22 07:40:23;;;;;;;;;44.50;36.75;;;;;2.28;63.13;102717.81;5037295;28;45525;-76
2023/01/22 07:42:49;;;;;;;;;42.33;32.67;;;;;2.43;62.77;102722.63;5019522;28;46418;-76
2023/01/22 07:45:14;;;;;;;;;58.67;41.67;;;;;2.31;62.70;102705.47;5019586;28;45381;-75
2023/01/22 07:47:40;;;;;;;;;35.00;30.00;;;;;2.22;63.15;102697.00;5037836;28;45231;-75
2023/01/22 07:50:06;;;;;;;;;49.33;38.67;;;;;2.16;62.75;102697.16;5019139;28;46955;-74
2023/01/22 07:52:31;;;;;;;;;36.33;34.00;;;;;1.97;63.19;102658.28;5037285;28;45285;-75
2023/01/22 07:54:56;;;;;;;;;45.00;36.00;;;;;2.43;63.28;102733.13;5037334;28;45475;-74
2023/01/22 07:57:22;;;;;;;;;41.00;36.33;;;;;2.32;62.68;102693.19;5037995;28;45243;-75
2023/01/22 07:59:47;;;;;;;;;41.67;31.33;;;;;0.91;62.76;102453.25;5019480;28;46663;-72
2023/01/22 08:02:14;;;;;;;;;49.00;39.33;;;;;2.10;62.68;102656.19;5038054;28;45456;-73
2023/01/22 08:04:42;;;;;;;;;48.00;37.33;;;;;2.26;63.40;102730.13;5020943;28;45431;-75
2023/01/22 08:07:15;;;;;;;;;45.00;39.67;;;;;1.35;63.74;102586.56;5021101;28;45579;-76
2023/01/22 08:09:40;;;;;;;;;54.00;44.00;;;;;2.02;64.26;102757.88;5037097;28;45599;-75
2023/01/22 08:12:06;;;;;;;;;49.33;40.00;;;;;1.83;64.55;102711.13;5019219;28;46228;-74
2023/01/22 08:14:31;;;;;;;;;47.33;38.00;;;;;1.79;63.92;102687.63;5019267;28;45316;-74
2023/01/22 08:16:56;;;;;;;;;40.67;33.33;;;;;1.96;64.63;102748.38;5018940;28;45460;-77
2023/01/22 08:19:22;;;;;;;;;42.50;35.50;;;;;1.46;64.93;102663.16;5037225;28;45439;-74
2023/01/22 08:21:47;;;;;;;;;38.33;36.00;;;;;2.10;64.43;102748.88;5037280;28;45314;-76
2023/01/22 08:24:13;;;;;;;;;28.33;26.00;;;;;2.16;64.80;102757.50;5019033;28;45436;-74
2023/01/22 08:26:38;;;;;;;;;65.00;43.50;;;;;1.95;64.45;102709.94;5037150;28;45546;-74
2023/01/22 08:29:04;;;;;;;;;46.00;37.00;;;;;1.90;63.77;102732.81;5038887;28;46530;-72
2023/01/22 08:31:29;;;;;;;;;26.33;24.67;;;;;2.12;64.31;102754.97;5040860;28;45366;-74
2023/01/22 08:33:57;;;;;;;;;40.33;36.33;;;;;2.02;64.57;102760.50;5040390;28;45509;-75
2023/01/22 08:36:22;;;;;;;;;52.75;40.75;;;;;1.87;64.23;102734.66;5040686;28;45272;-74
2023/01/22 08:38:48;;;;;;;;;36.00;32.33;;;;;1.15;64.43;102605.41;5040219;28;46296;-75
2023/01/22 08:41:14;;;;;;;;;41.00;32.75;;;;;1.93;64.24;102748.47;5040370;28;45526;-73
2023/01/22 08:43:39;;;;;;;;;35.67;34.00;;;;;1.98;64.56;102771.94;5040196;28;45239;-76
2023/01/22 08:46:05;;;;;;;;;40.33;33.33;;;;;2.04;64.01;102756.06;5039971;28;47905;-73
2023/01/22 08:48:30;;;;;;;;;40.00;36.33;;;;;1.44;64.13;102692.03;5040382;28;45621;-74
2023/01/22 08:50:59;;;;;;;;;30.67;25.00;;;;;1.47;64.63;102691.97;5028387;28;45361;-72
2023/01/22 08:53:24;;;;;;;;;53.67;40.00;;;;;1.98;64.51;102791.19;5042690;28;45275;-75
2023/01/22 08:55:49;;;;;;;;;38.00;36.33;;;;;0.45;64.73;102497.19;5040727;28;45519;-75
2023/01/22 08:58:15;;;;;;;;;44.33;37.00;;;;;2.00;63.93;102731.69;5021846;28;46292;-75
2023/01/22 09:00:40;;;;;;;;;47.67;35.33;;;;;2.32;63.92;102783.28;5039942;28;45267;-74
2023/01/22 09:03:06;;;;;;;;;38.67;34.00;;;;;2.20;63.33;102752.13;5023376;28;45501;-76
2023/01/22 09:05:50;;;;;;;;;;;;;;;;;;;;;
2023/01/22 09:08:16;;;;;;;;;31.33;25.33;;;;;2.00;63.54;102700.22;5040773;28;73926;-74
2023/01/22 09:10:42;;;;;;;;;37.33;28.33;;;;;2.43;63.15;102769.88;5042851;28;45163;-74
2023/01/22 09:13:09;;;;;;;;;45.00;37.33;;;;;2.27;63.51;102731.84;5022691;28;45315;-75
2023/01/22 09:15:35;;;;;;;;;46.67;34.00;;;;;2.31;63.19;102730.84;5040090;28;45490;-74
2023/01/22 09:18:04;;;;;;;;;37.67;31.33;;;;;1.67;62.79;102615.41;5040099;28;45421;-74
2023/01/22 09:20:29;;;;;;;;;43.33;34.00;;;;;2.20;62.98;102688.28;5021990;28;46355;-75
2023/01/22 09:22:54;;;;;;;;;36.33;25.67;;;;;2.38;62.27;102724.50;5022371;28;45191;-75
2023/01/22 09:25:20;;;;;;;;;38.67;32.67;;;;;2.50;62.90;102726.81;5022123;28;45480;-77
2023/01/22 09:27:45;;;;;;;;;37.33;34.00;;;;;2.20;62.51;102699.63;5022511;28;47140;-76
2023/01/22 09:30:13;;;;;;;;;47.33;31.67;;;;;2.71;62.98;102773.44;5021892;28;45474;-74
2023/01/22 09:32:39;;;;;;;;;32.33;27.33;;;;;2.73;62.42;102771.63;5022193;28;45246;-72
2023/01/22 09:35:07;;;;;;;;;38.25;34.50;;;;;2.27;61.96;102719.56;5040666;28;45420;-75
2023/01/22 09:37:32;;;;;;;;;42.00;36.33;;;;;2.53;62.84;102752.97;5022769;28;46552;-73
2023/01/22 09:39:57;;;;;;;;;35.33;30.00;;;;;2.72;62.34;102783.06;5038939;28;45244;-73
2023/01/22 09:42:27;;;;;;;;;33.33;27.00;;;;;2.65;62.65;102760.50;5040406;28;45507;-77
2023/01/22 09:44:58;;;;;;;;;41.00;35.00;;;;;2.56;61.87;102734.50;5039593;28;45591;-74
2023/01/22 09:47:33;;;;;;;;;42.00;35.00;;;;;1.64;62.27;102593.66;5039060;28;46071;-76
2023/01/22 09:50:06;;;;;;;;;37.00;28.33;;;;;3.01;62.24;102786.63;5021085;28;46469;-74
2023/01/22 09:52:36;;;;;;;;;39.00;32.33;;;;;2.82;61.20;102754.78;5021519;28;45502;-76
2023/01/22 09:55:02;;;;;;;;;46.67;39.00;;;;;2.88;61.27;102757.22;5021332;28;45236;-74
2023/01/22 09:57:27;;;;;;;;;41.33;32.67;;;;;2.85;61.17;102767.81;5020831;28;47338;-75
2023/01/22 09:59:55;;;;;;;;;35.67;34.33;;;;;2.85;61.58;102774.84;5039142;28;45540;-75
2023/01/22 10:02:37;;;;;;;;;40.00;30.67;;;;;2.02;61.65;102664.31;5038968;28;45337;-74
2023/01/22 10:05:17;;;;;;;;;34.67;32.33;;;;;1.87;61.99;102655.97;5039269;28;45718;-77
2023/01/22 10:07:53;;;;;;;;;44.25;36.00;;;;;1.80;63.28;102676.25;5038902;28;46235;-75
2023/01/22 10:10:22;;;;;;;;;40.00;36.50;;;;;2.64;62.16;102803.44;5020875;28;45298;-76
2023/01/22 10:13:12;;;;;;;;;43.00;32.33;;;;;2.78;62.32;102802.16;5039179;28;45216;-74
2023/01/22 10:15:38;;;;;;;;;42.33;34.00;;;;;2.69;62.77;102798.91;5020922;28;45495;-74
2023/01/22 10:18:26;;;;;;;;;39.33;34.33;;;;;2.84;62.59;102807.25;5038790;28;46698;-74
2023/01/22 10:20:53;;;;;;;;;38.33;30.33;;;;;2.71;62.83;102802.34;5039675;28;45311;-73
2023/01/22 10:23:22;;;;;;;;;34.67;33.00;;;;;2.79;62.64;102798.63;5041218;28;45460;-77
2023/01/22 10:25:52;;;;;;;;;37.33;33.33;;;;;2.54;63.30;102782.72;5021710;28;45490;-76
2023/01/22 10:28:24;;;;;;;;;32.67;30.33;;;;;2.41;63.11;102766.44;5021248;28;48298;-75
2023/01/22 10:30:56;;;;;;;;;38.67;33.67;;;;;2.66;63.13;102783.22;5038968;28;45399;-78
2023/01/22 10:33:23;;;;;;;;;31.00;29.00;;;;;2.54;63.08;102766.94;5039144;28;45246;-77
2023/01/22 10:35:51;;;;;;;;;39.33;35.67;;;;;2.62;63.00;102768.47;5022870;28;45421;-75
2023/01/22 10:38:20;;;;;;;;;42.67;36.00;;;;;2.24;62.85;102716.19;5024890;28;45775;-75
2023/01/22 10:40:52;;;;;;;;;38.33;32.33;;;;;2.61;63.17;102795.66;5021314;28;45445;-76
2023/01/22 10:43:17;;;;;;;;;38.33;31.33;;;;;2.54;62.79;102773.06;5021035;28;45398;-74
2023/01/22 10:45:58;;;;;;;;;27.00;18.00;;;;;2.35;63.33;102735.97;5039959;28;45490;-75
2023/01/22 10:48:24;;;;;;;;;39.33;31.00;;;;;2.55;63.11;102769.53;5040576;28;45751;-75
2023/01/22 10:51:26;;;;;;;;;34.00;26.67;;;;;2.55;63.52;102785.28;5020954;28;45392;-75
2023/01/22 10:53:54;;;;;;;;;27.67;23.67;;;;;2.41;63.45;102779.56;5028302;28;45368;-72
2023/01/22 10:56:39;;;;;;;;;37.00;30.67;;;;;2.42;63.92;102783.94;5020506;28;45493;-75
2023/01/22 10:59:18;;;;;;;;;26.33;25.00;;;;;2.05;63.55;102716.69;5020052;28;47941;-73
2023/01/22 11:01:47;;;;;;;;;35.67;33.67;;;;;2.20;64.36;102753.88;5038481;28;45515;-76
2023/01/22 11:04:19;;;;;;;;;40.67;35.33;;;;;2.07;64.22;102719.25;5039042;28;45766;-77
2023/01/22 11:07:08;;;;;;;;;33.33;27.33;;;;;2.25;63.90;102746.78;5021543;28;45557;-75
2023/01/22 11:09:40;;;;;;;;;47.00;38.00;;;;;2.52;63.08;102777.50;5039168;28;45782;-76
2023/01/22 11:12:19;;;;;;;;;34.67;27.33;;;;;2.38;63.18;102740.25;5020302;28;45477;-73
2023/01/22 11:15:10;;;;;;;;;39.00;32.00;;;;;2.68;63.03;102764.81;5041731;28;45317;-75
2023/01/22 11:17:58;;;;;;;;;41.00;35.00;;;;;2.71;62.77;102752.44;5022410;28;45557;-75
2023/01/22 11:20:48;;;;;;;;;31.33;27.33;;;;;2.69;62.22;102756.88;5023607;28;47046;-75
2023/01/22 11:23:34;;;;;;;;;34.67;30.33;;;;;2.57;62.46;102727.47;5019757;28;45499;-76
2023/01/22 11:26:40;;;;;;;;;38.33;31.00;;;;;2.70;62.55;102737.59;5038436;28;45329;-75
2023/01/22 11:29:48;;;;;;;;;28.67;26.00;;;;;2.79;62.46;102752.22;5038024;28;45505;-75
2023/01/22 11:32:32;;;;;;;;;35.33;27.33;;;;;2.74;63.15;102752.34;4994126;28;46656;-75